createdAt,value
2022-08-20T00:01:18.977Z,47.47
2022-08-20T00:03:53.216Z,47.92
2022-08-20T00:06:23.092Z,47.93
2022-08-20T00:08:50.998Z,48.47
2022-08-20T00:11:24.086Z,48.04
2022-08-20T00:13:56.324Z,47.88
2022-08-20T00:16:25.744Z,47.86
2022-08-20T00:18:54.336Z,47.85
2022-08-20T00:21:23.314Z,48.02
2022-08-20T00:23:55.143Z,48.12
2022-08-20T00:26:23.854Z,48.49
2022-08-20T00:28:52.663Z,48.33
2022-08-20T00:31:21.614Z,48.04
2022-08-20T00:33:50.146Z,47.81
2022-08-20T00:36:18.802Z,47.89
2022-08-20T00:38:47.610Z,47.99
2022-08-20T00:41:19.200Z,47.97
2022-08-20T00:43:46.902Z,48.15
2022-08-20T00:46:18.634Z,48.23
2022-08-20T00:48:48.876Z,48.35
2022-08-20T00:51:32.584Z,48.46
2022-08-20T00:54:07.111Z,48.53
2022-08-20T00:56:35.505Z,48.58
2022-08-20T00:59:05.486Z,48.77
2022-08-20T01:01:40.654Z,48.70
2022-08-20T01:04:25.384Z,48.58
2022-08-20T01:06:53.792Z,48.61
2022-08-20T01:09:49.628Z,48.80
2022-08-20T01:12:10.006Z,49.04
2022-08-20T01:14:37.886Z,48.87
2022-08-20T01:17:07.799Z,48.81
2022-08-20T01:19:38.840Z,48.82
2022-08-20T01:22:27.482Z,49.03
2022-08-20T01:25:02.120Z,49.36
2022-08-20T01:27:30.935Z,49.34
2022-08-20T01:30:06.209Z,49.36
2022-08-20T01:32:36.093Z,49.41
2022-08-20T01:35:04.842Z,49.53
2022-08-20T01:37:32.999Z,49.75
2022-08-20T01:40:02.212Z,49.83
2022-08-20T01:42:52.830Z,49.88
2022-08-20T01:45:30.357Z,49.85
2022-08-20T01:47:59.321Z,50.33
2022-08-20T01:50:28.980Z,50.62
2022-08-20T01:53:00.315Z,50.58
2022-08-20T01:55:28.743Z,50.86
2022-08-20T01:57:57.950Z,51.11
2022-08-20T02:00:26.979Z,51.29
2022-08-20T02:02:54.990Z,51.29
2022-08-20T02:05:24.540Z,51.35
2022-08-20T02:07:58.272Z,51.35
2022-08-20T02:10:26.490Z,51.62
2022-08-20T02:12:54.615Z,51.52
2022-08-20T02:15:34.954Z,51.46
2022-08-20T02:18:10.504Z,51.73
2022-08-20T02:20:39.292Z,51.63
2022-08-20T02:23:08.491Z,51.56
2022-08-20T02:25:38.033Z,51.51
2022-08-20T02:28:08.174Z,51.32
2022-08-20T02:30:38.856Z,51.16
2022-08-20T02:33:09.350Z,51.22
2022-08-20T02:35:38.381Z,51.43
2022-08-20T02:38:06.393Z,51.52
2022-08-20T02:40:36.212Z,51.48
2022-08-20T02:43:04.522Z,51.50
2022-08-20T02:45:43.918Z,51.67
2022-08-20T02:48:18.768Z,51.89
2022-08-20T02:50:51.648Z,51.91
2022-08-20T02:53:19.967Z,51.75
2022-08-20T02:55:48.528Z,51.82
2022-08-20T02:58:17.713Z,51.95
2022-08-20T03:00:45.897Z,51.93
2022-08-20T03:03:15.330Z,51.96
2022-08-20T03:05:44.973Z,52.06
2022-08-20T03:08:14.082Z,52.21
2022-08-20T03:10:43.008Z,52.59
2022-08-20T03:13:12.654Z,52.51
2022-08-20T03:15:42.471Z,52.43
2022-08-20T03:18:10.973Z,52.47
2022-08-20T03:20:39.242Z,52.63
2022-08-20T03:23:08.213Z,52.66
2022-08-20T03:25:36.861Z,52.68
2022-08-20T03:28:05.157Z,52.46
2022-08-20T03:30:33.098Z,52.54
2022-08-20T03:33:01.293Z,52.57
2022-08-20T03:35:30.428Z,52.55
2022-08-20T03:37:58.718Z,52.71
2022-08-20T03:40:28.402Z,52.92
2022-08-20T03:42:56.708Z,52.97
2022-08-20T03:45:25.644Z,53.09
2022-08-20T03:47:55.208Z,53.08
2022-08-20T03:50:24.588Z,53.03
2022-08-20T03:52:53.581Z,53.00
2022-08-20T03:55:22.338Z,53.19
2022-08-20T03:57:55.623Z,53.20
2022-08-20T04:00:44.004Z,53.34
2022-08-20T04:03:12.031Z,53.33
2022-08-20T04:05:41.208Z,53.30
2022-08-20T04:08:13.608Z,53.47
2022-08-20T04:10:42.206Z,53.76
2022-08-20T04:13:10.251Z,53.63
2022-08-20T04:15:38.558Z,53.89
2022-08-20T04:18:07.709Z,53.89
2022-08-20T04:20:37.597Z,53.76
2022-08-20T04:23:05.791Z,53.65
2022-08-20T04:25:35.972Z,53.50
2022-08-20T04:28:06.265Z,53.53
2022-08-20T04:30:34.497Z,53.21
2022-08-20T04:33:02.285Z,53.13
2022-08-20T04:35:30.789Z,52.81
2022-08-20T04:38:00.560Z,52.61
2022-08-20T04:40:47.890Z,52.43
2022-08-20T04:43:16.209Z,52.14
2022-08-20T04:45:45.156Z,52.02
2022-08-20T04:48:15.336Z,51.76
2022-08-20T04:50:44.766Z,51.46
2022-08-20T04:53:13.681Z,51.30
2022-08-20T04:55:43.056Z,51.02
2022-08-20T04:58:14.843Z,50.66
2022-08-20T05:00:45.572Z,50.36
2022-08-20T05:03:14.124Z,50.02
2022-08-20T05:05:42.339Z,49.87
2022-08-20T05:08:16.699Z,49.51
2022-08-20T05:10:48.827Z,49.27
2022-08-20T05:13:17.831Z,48.92
2022-08-20T05:15:48.963Z,48.57
2022-08-20T05:18:21.585Z,48.27
2022-08-20T05:20:49.870Z,47.95
2022-08-20T05:23:18.925Z,47.45
2022-08-20T05:25:49.602Z,47.33
2022-08-20T05:28:19.504Z,47.19
2022-08-20T05:30:48.433Z,46.74
2022-08-20T05:33:20.189Z,46.30
2022-08-20T05:35:49.747Z,46.00
2022-08-20T05:38:19.500Z,45.86
2022-08-20T05:40:48.394Z,45.58
2022-08-20T05:43:17.901Z,45.02
2022-08-20T05:45:46.368Z,44.91
2022-08-20T05:48:15.983Z,44.96
2022-08-20T05:50:46.324Z,44.74
2022-08-20T05:53:15.308Z,44.46
2022-08-20T05:55:44.405Z,44.37
2022-08-20T05:58:20.891Z,44.22
2022-08-20T06:00:49.545Z,44.12
2022-08-20T06:03:36.307Z,43.88
2022-08-20T06:06:06.098Z,43.81
2022-08-20T06:08:46.914Z,43.80
2022-08-20T06:11:15.228Z,43.72
2022-08-20T06:13:43.062Z,43.64
2022-08-20T06:16:11.221Z,43.13
2022-08-20T06:18:39.958Z,42.83
2022-08-20T06:21:08.253Z,42.81
2022-08-20T06:23:50.357Z,42.85
2022-08-20T06:26:29.898Z,42.11
2022-08-20T06:28:59.293Z,41.90
2022-08-20T06:31:27.870Z,42.17
2022-08-20T06:33:55.930Z,42.37
2022-08-20T06:36:25.357Z,42.45
2022-08-20T06:38:55.045Z,42.43
2022-08-20T06:41:22.872Z,41.92
2022-08-20T06:44:05.192Z,41.77
2022-08-20T06:46:33.815Z,41.63
2022-08-20T06:49:01.838Z,41.61
2022-08-20T06:51:30.157Z,41.65
2022-08-20T06:53:58.716Z,41.67
2022-08-20T06:56:26.485Z,41.45
2022-08-20T06:58:54.407Z,41.04
2022-08-20T07:01:22.182Z,40.71
2022-08-20T07:03:54.343Z,40.73
2022-08-20T07:06:26.065Z,40.77
2022-08-20T07:08:55.403Z,40.64
2022-08-20T07:11:27.671Z,41.14
2022-08-20T07:13:57.167Z,40.99
2022-08-20T07:16:25.259Z,40.56
2022-08-20T07:18:53.534Z,40.16
2022-08-20T07:21:21.925Z,40.26
2022-08-20T07:23:50.186Z,39.94
2022-08-20T07:26:18.677Z,39.77
2022-08-20T07:28:46.595Z,39.35
2022-08-20T07:31:34.866Z,38.48
2022-08-20T07:34:03.456Z,38.02
2022-08-20T07:36:32.353Z,38.30
2022-08-20T07:39:05.896Z,38.12
2022-08-20T07:41:34.709Z,38.00
2022-08-20T07:44:02.753Z,37.90
2022-08-20T07:46:31.895Z,37.38
2022-08-20T07:48:59.893Z,37.42
2022-08-20T07:51:28.684Z,37.32
2022-08-20T07:53:58.410Z,37.37
2022-08-20T07:56:27.938Z,36.99
2022-08-20T07:59:00.780Z,36.97
2022-08-20T08:01:31.005Z,36.71
2022-08-20T08:04:00.314Z,36.57
2022-08-20T08:06:31.725Z,36.40
2022-08-20T08:09:03.881Z,36.22
2022-08-20T08:11:33.470Z,36.06
2022-08-20T08:14:02.179Z,34.84
2022-08-20T08:16:32.774Z,34.70
2022-08-20T08:19:02.253Z,34.35
2022-08-20T08:21:31.113Z,34.30
2022-08-20T08:23:59.178Z,33.78
2022-08-20T08:26:29.085Z,33.58
2022-08-20T08:28:58.629Z,33.30
2022-08-20T08:31:27.117Z,32.47
2022-08-20T08:33:55.932Z,32.29
2022-08-20T08:36:26.456Z,31.96
2022-08-20T08:38:56.200Z,31.74
2022-08-20T08:41:29.817Z,31.19
2022-08-20T08:44:03.209Z,30.64
2022-08-20T08:46:32.673Z,30.40
2022-08-20T08:49:02.208Z,30.25
2022-08-20T08:51:37.407Z,30.35
2022-08-20T08:54:07.156Z,30.07
2022-08-20T08:56:35.936Z,29.52
2022-08-20T08:59:06.579Z,29.21
2022-08-20T09:01:55.392Z,29.21
2022-08-20T09:04:32.683Z,29.79
2022-08-20T09:07:02.984Z,29.49
2022-08-20T09:09:32.967Z,29.65
2022-08-20T09:12:05.899Z,29.76
2022-08-20T09:14:34.404Z,29.93
2022-08-20T09:17:02.362Z,29.93
2022-08-20T09:19:30.712Z,30.24
2022-08-20T09:21:59.133Z,30.61
2022-08-20T09:24:27.648Z,30.62
2022-08-20T09:26:55.563Z,30.63
2022-08-20T09:29:23.849Z,30.88
2022-08-20T09:31:52.051Z,30.73
2022-08-20T09:34:21.230Z,31.08
2022-08-20T09:36:49.021Z,31.29
2022-08-20T09:39:17.077Z,31.73
2022-08-20T09:41:45.564Z,31.88
2022-08-20T09:44:13.821Z,31.89
2022-08-20T09:46:41.649Z,31.79
2022-08-20T09:49:10.516Z,31.82
2022-08-20T09:51:39.510Z,31.77
2022-08-20T09:54:07.417Z,31.72
2022-08-20T09:56:36.388Z,32.09
2022-08-20T09:59:04.446Z,32.17
2022-08-20T10:01:33.388Z,32.57
2022-08-20T10:04:01.530Z,32.86
2022-08-20T10:06:29.405Z,32.75
2022-08-20T10:08:57.235Z,32.80
2022-08-20T10:11:25.206Z,32.20
2022-08-20T10:13:53.471Z,31.74
2022-08-20T10:16:21.871Z,31.37
2022-08-20T10:18:50.542Z,30.61
2022-08-20T10:21:18.411Z,30.46
2022-08-20T10:23:47.388Z,30.66
2022-08-20T10:26:15.293Z,30.24
2022-08-20T10:28:43.311Z,30.57
2022-08-20T10:31:12.533Z,30.53
2022-08-20T10:33:40.993Z,30.65
2022-08-20T10:36:10.563Z,30.92
2022-08-20T10:38:38.996Z,31.42
2022-08-20T10:41:06.799Z,31.48
2022-08-20T10:43:35.152Z,31.29
2022-08-20T10:46:03.322Z,30.59
2022-08-20T10:48:31.907Z,31.17
2022-08-20T10:50:59.817Z,32.44
2022-08-20T10:53:27.843Z,33.39
2022-08-20T10:55:55.915Z,34.24
2022-08-20T10:58:24.472Z,34.55
2022-08-20T11:00:53.106Z,34.64
2022-08-20T11:03:21.199Z,35.12
2022-08-20T11:05:49.672Z,35.55
2022-08-20T11:08:22.630Z,35.81
2022-08-20T11:11:02.948Z,35.43
2022-08-20T11:13:30.732Z,35.55
2022-08-20T11:15:58.464Z,35.43
2022-08-20T11:18:26.899Z,35.86
2022-08-20T11:20:55.754Z,36.06
2022-08-20T11:23:23.876Z,36.26
2022-08-20T11:25:52.208Z,36.14
2022-08-20T11:28:31.774Z,35.82
2022-08-20T11:31:01.961Z,35.86
2022-08-20T11:33:29.874Z,35.75
2022-08-20T11:35:57.943Z,35.66
2022-08-20T11:38:27.333Z,36.05
2022-08-20T11:40:55.328Z,36.07
2022-08-20T11:43:23.447Z,36.09
2022-08-20T11:45:54.527Z,36.15
2022-08-20T11:48:22.832Z,36.03
2022-08-20T11:50:51.995Z,36.10
2022-08-20T11:53:20.054Z,36.14
2022-08-20T11:55:49.725Z,36.00
2022-08-20T11:58:18.160Z,35.88
2022-08-20T12:00:46.128Z,35.96
2022-08-20T12:03:14.564Z,35.93
2022-08-20T12:05:43.893Z,35.89
2022-08-20T12:08:26.473Z,35.73
2022-08-20T12:11:02.628Z,35.72
2022-08-20T12:13:48.326Z,35.86
2022-08-20T12:16:18.377Z,36.03
2022-08-20T12:18:47.325Z,36.12
2022-08-20T12:21:16.107Z,36.40
2022-08-20T12:23:44.128Z,36.13
2022-08-20T12:26:12.575Z,36.25
2022-08-20T12:28:41.164Z,36.03
2022-08-20T12:31:09.190Z,36.06
2022-08-20T12:33:37.489Z,36.10
2022-08-20T12:36:06.260Z,35.81
2022-08-20T12:38:34.898Z,35.80
2022-08-20T12:41:03.053Z,35.53
2022-08-20T12:43:31.948Z,35.33
2022-08-20T12:45:59.857Z,35.12
2022-08-20T12:48:28.120Z,34.85
2022-08-20T12:50:56.217Z,34.75
2022-08-20T12:53:25.008Z,34.73
2022-08-20T12:55:53.061Z,34.78
2022-08-20T12:58:21.297Z,34.68
2022-08-20T13:00:50.659Z,34.99
2022-08-20T13:03:20.528Z,35.25
2022-08-20T13:05:49.464Z,35.27
2022-08-20T13:08:19.742Z,35.30
2022-08-20T13:10:47.838Z,35.50
2022-08-20T13:13:20.075Z,36.01
2022-08-20T13:15:51.196Z,36.24
2022-08-20T13:18:19.934Z,35.99
2022-08-20T13:20:49.202Z,35.61
2022-08-20T13:23:17.436Z,35.67
2022-08-20T13:25:45.419Z,35.60
2022-08-20T13:28:13.250Z,35.68
2022-08-20T13:30:42.131Z,35.69
2022-08-20T13:33:10.738Z,35.75
2022-08-20T13:35:39.584Z,35.84
2022-08-20T13:38:07.481Z,35.74
2022-08-20T13:40:35.728Z,35.55
2022-08-20T13:43:07.040Z,35.46
2022-08-20T13:45:38.891Z,35.28
2022-08-20T13:48:09.963Z,35.28
2022-08-20T13:50:47.008Z,35.23
2022-08-20T13:53:15.986Z,35.33
2022-08-20T13:55:44.215Z,35.39
2022-08-20T13:58:11.939Z,35.73
2022-08-20T14:00:40.615Z,35.63
2022-08-20T14:03:08.953Z,34.99
2022-08-20T14:05:38.180Z,35.17
2022-08-20T14:08:08.424Z,35.15
2022-08-20T14:10:37.099Z,35.19
2022-08-20T14:13:07.029Z,35.35
2022-08-20T14:15:36.982Z,35.34
2022-08-20T14:18:05.338Z,35.34
2022-08-20T14:20:34.241Z,35.35
2022-08-20T14:23:02.772Z,35.09
2022-08-20T14:25:31.859Z,35.47
2022-08-20T14:28:09.539Z,35.34
2022-08-20T14:30:38.119Z,35.43
2022-08-20T14:33:06.447Z,35.46
2022-08-20T14:35:34.936Z,35.47
2022-08-20T14:38:05.331Z,35.68
2022-08-20T14:40:34.153Z,35.65
2022-08-20T14:43:03.378Z,35.60
2022-08-20T14:45:31.577Z,35.78
2022-08-20T14:47:59.893Z,36.06
2022-08-20T14:50:32.567Z,35.92
2022-08-20T14:53:01.258Z,35.70
2022-08-20T14:55:31.028Z,35.74
2022-08-20T14:57:59.552Z,35.89
2022-08-20T15:00:29.609Z,37.10
2022-08-20T15:02:57.982Z,38.45
2022-08-20T15:05:27.605Z,39.90
2022-08-20T15:07:58.607Z,41.89
2022-08-20T15:10:31.796Z,43.89
2022-08-20T15:13:00.948Z,45.06
2022-08-20T15:15:29.620Z,46.72
2022-08-20T15:18:00.417Z,48.09
2022-08-20T15:20:30.095Z,49.04
2022-08-20T15:22:58.330Z,49.93
2022-08-20T15:25:27.463Z,50.40
2022-08-20T15:28:06.003Z,50.94
2022-08-20T15:30:34.345Z,51.44
2022-08-20T15:33:02.426Z,52.13
2022-08-20T15:35:31.066Z,52.58
2022-08-20T15:37:59.420Z,53.10
2022-08-20T15:40:30.044Z,53.59
2022-08-20T15:42:59.353Z,54.25
2022-08-20T15:45:27.831Z,54.58
2022-08-20T15:48:15.849Z,55.20
2022-08-20T15:51:03.091Z,55.50
2022-08-20T15:53:39.563Z,55.69
2022-08-20T15:56:28.197Z,56.02
2022-08-20T15:59:02.017Z,56.67
2022-08-20T16:01:44.090Z,56.91
2022-08-20T16:04:30.694Z,57.40
2022-08-20T16:07:01.853Z,57.87
2022-08-20T16:09:30.139Z,58.06
2022-08-20T16:12:08.659Z,58.06
2022-08-20T16:14:42.983Z,58.21
2022-08-20T16:17:11.131Z,58.42
2022-08-20T16:19:45.517Z,58.82
2022-08-20T16:22:15.041Z,58.72
2022-08-20T16:24:43.470Z,58.80
2022-08-20T16:27:21.222Z,58.93
2022-08-20T16:29:49.511Z,59.12
2022-08-20T16:32:20.926Z,59.34
2022-08-20T16:35:10.451Z,59.77
2022-08-20T16:37:45.543Z,59.47
2022-08-20T16:40:26.574Z,59.49
2022-08-20T16:42:57.707Z,59.17
2022-08-20T16:45:30.878Z,59.27
2022-08-20T16:48:01.175Z,59.47
2022-08-20T16:50:33.990Z,59.12
2022-08-20T16:53:02.080Z,59.23
2022-08-20T16:55:30.254Z,58.73
2022-08-20T16:57:58.599Z,59.19
2022-08-20T17:00:35.745Z,59.29
2022-08-20T17:03:31.478Z,59.07
2022-08-20T17:06:01.916Z,59.19
2022-08-20T17:08:32.185Z,59.63
2022-08-20T17:11:00.329Z,60.19
2022-08-20T17:13:33.623Z,60.15
2022-08-20T17:16:01.489Z,59.82
2022-08-20T17:18:31.828Z,59.80
2022-08-20T17:21:02.059Z,60.68
2022-08-20T17:23:31.484Z,61.46
2022-08-20T17:26:01.305Z,60.78
2022-08-20T17:28:34.550Z,60.28
2022-08-20T17:31:03.633Z,59.80
2022-08-20T17:33:33.899Z,59.78
2022-08-20T17:36:08.553Z,60.12
2022-08-20T17:38:38.906Z,59.86
2022-08-20T17:41:12.779Z,59.44
2022-08-20T17:43:43.978Z,59.58
2022-08-20T17:46:16.517Z,59.61
2022-08-20T17:48:45.925Z,59.22
2022-08-20T17:51:18.479Z,59.26
2022-08-20T17:53:50.083Z,59.37
2022-08-20T17:56:24.125Z,59.47
2022-08-20T17:59:03.407Z,59.52
2022-08-20T18:01:35.005Z,59.84
2022-08-20T18:04:03.601Z,60.39
2022-08-20T18:06:45.029Z,61.09
2022-08-20T18:09:13.000Z,61.71
2022-08-20T18:12:04.204Z,61.98
2022-08-20T18:14:52.016Z,61.95
2022-08-20T18:17:41.951Z,62.07
2022-08-20T18:20:24.233Z,62.06
2022-08-20T18:22:58.326Z,62.10
2022-08-20T18:25:37.560Z,62.17
2022-08-20T18:28:23.357Z,62.31
2022-08-20T18:31:01.835Z,62.27
2022-08-20T18:33:35.421Z,62.25
2022-08-20T18:36:05.985Z,62.17
2022-08-20T18:38:37.233Z,61.92
2022-08-20T18:41:24.202Z,61.65
2022-08-20T18:44:02.660Z,61.40
2022-08-20T18:46:31.061Z,61.43
2022-08-20T18:49:00.560Z,61.25
2022-08-20T18:51:36.359Z,60.94
2022-08-20T18:54:04.745Z,60.73
2022-08-20T18:56:35.405Z,60.43
2022-08-20T18:59:03.885Z,60.39
2022-08-20T19:01:34.753Z,60.18
2022-08-20T19:04:13.539Z,60.06
2022-08-20T19:06:45.093Z,59.97
2022-08-20T19:09:32.107Z,59.96
2022-08-20T19:12:11.831Z,59.93
2022-08-20T19:14:54.633Z,59.64
2022-08-20T19:17:37.564Z,59.86
2022-08-20T19:20:09.085Z,59.86
2022-08-20T19:22:39.139Z,60.14
2022-08-20T19:25:07.758Z,60.46
2022-08-20T19:27:35.884Z,60.63
2022-08-20T19:30:04.049Z,60.60
2022-08-20T19:32:33.272Z,60.92
2022-08-20T19:35:04.338Z,61.18
2022-08-20T19:37:44.515Z,61.35
2022-08-20T19:40:24.874Z,61.73
2022-08-20T19:42:59.120Z,61.83
2022-08-20T19:45:30.137Z,61.76
2022-08-20T19:48:13.603Z,61.72
2022-08-20T19:50:54.792Z,62.06
2022-08-20T19:53:30.603Z,62.07
2022-08-20T19:55:59.479Z,62.00
2022-08-20T19:58:29.213Z,62.08
2022-08-20T20:00:58.624Z,61.91
2022-08-20T20:03:29.026Z,61.83
2022-08-20T20:06:02.436Z,61.88
2022-08-20T20:08:37.696Z,62.18
2022-08-20T20:11:06.055Z,62.31
2022-08-20T20:13:39.556Z,62.61
2022-08-20T20:16:08.533Z,62.96
2022-08-20T20:18:37.912Z,62.81
2022-08-20T20:21:11.251Z,62.76
2022-08-20T20:23:46.802Z,62.70
2022-08-20T20:26:17.158Z,62.36
2022-08-20T20:28:47.529Z,61.88
2022-08-20T20:31:28.556Z,61.49
2022-08-20T20:33:58.800Z,61.39
2022-08-20T20:36:31.985Z,61.47
2022-08-20T20:39:01.209Z,61.40
2022-08-20T20:41:29.556Z,61.48
2022-08-20T20:43:59.419Z,61.37
2022-08-20T20:46:29.256Z,61.26
2022-08-20T20:49:09.766Z,61.43
2022-08-20T20:51:40.068Z,61.38
2022-08-20T20:54:22.806Z,61.44
2022-08-20T20:57:07.273Z,61.33
2022-08-20T20:59:36.113Z,61.44
2022-08-20T21:02:04.744Z,61.49
2022-08-20T21:04:33.277Z,61.35
2022-08-20T21:07:07.519Z,61.60
2022-08-20T21:09:36.491Z,61.58
2022-08-20T21:12:05.472Z,61.73
2022-08-20T21:14:33.889Z,61.90
2022-08-20T21:17:02.927Z,61.71
2022-08-20T21:19:31.829Z,61.61
2022-08-20T21:22:00.967Z,61.75
2022-08-20T21:24:29.306Z,61.86
2022-08-20T21:26:59.044Z,61.80
2022-08-20T21:29:32.291Z,61.88
2022-08-20T21:32:01.087Z,61.97
2022-08-20T21:34:28.879Z,62.22
2022-08-20T21:36:56.851Z,62.39
2022-08-20T21:39:27.661Z,62.66
2022-08-20T21:41:57.094Z,62.83
2022-08-20T21:44:27.380Z,62.75
2022-08-20T21:46:59.016Z,62.66
2022-08-20T21:49:28.640Z,62.76
2022-08-20T21:51:57.024Z,62.87
2022-08-20T21:54:25.963Z,62.84
2022-08-20T21:56:58.300Z,63.04
2022-08-20T21:59:26.811Z,63.07
2022-08-20T22:01:55.314Z,62.82
2022-08-20T22:04:23.765Z,62.44
2022-08-20T22:06:51.612Z,62.20
2022-08-20T22:09:19.716Z,62.11
2022-08-20T22:11:53.883Z,62.02
2022-08-20T22:14:23.554Z,61.89
2022-08-20T22:16:51.780Z,61.72
2022-08-20T22:19:19.919Z,61.52
2022-08-20T22:21:49.587Z,61.47
2022-08-20T22:24:17.490Z,61.24
2022-08-20T22:26:45.546Z,61.22
2022-08-20T22:29:13.597Z,61.35
2022-08-20T22:31:42.799Z,61.27
2022-08-20T22:34:12.114Z,61.45
2022-08-20T22:36:40.577Z,61.39
2022-08-20T22:39:08.833Z,61.56
2022-08-20T22:41:36.791Z,61.46
2022-08-20T22:44:05.088Z,61.37
2022-08-20T22:46:35.884Z,61.52
2022-08-20T22:49:04.895Z,61.77
2022-08-20T22:51:35.005Z,61.80
2022-08-20T22:54:04.299Z,61.83
2022-08-20T22:56:32.317Z,61.96
2022-08-20T22:59:03.332Z,61.92
2022-08-20T23:01:31.475Z,61.97
2022-08-20T23:04:26.065Z,62.39
2022-08-20T23:06:54.879Z,62.38
2022-08-20T23:09:23.287Z,62.48
2022-08-20T23:11:52.821Z,62.31
2022-08-20T23:14:22.143Z,62.49
2022-08-20T23:16:56.705Z,62.39
2022-08-20T23:19:26.091Z,62.59
2022-08-20T23:21:53.797Z,62.43
2022-08-20T23:24:22.142Z,62.67
2022-08-20T23:26:53.320Z,63.11
2022-08-20T23:29:25.898Z,63.69
2022-08-20T23:31:57.144Z,64.01
2022-08-20T23:34:26.511Z,64.45
2022-08-20T23:36:55.789Z,64.44
2022-08-20T23:39:24.904Z,64.71
2022-08-20T23:41:53.420Z,64.63
2022-08-20T23:44:25.853Z,64.95
2022-08-20T23:46:57.238Z,65.17
2022-08-20T23:49:25.791Z,65.77
2022-08-20T23:51:53.979Z,66.18
2022-08-20T23:54:22.327Z,66.21
2022-08-20T23:56:50.465Z,66.37
2022-08-20T23:59:19.005Z,66.22
